Terminal Aerodrome Forecast
Issued by NWS Boston, MA

Home | Current Version | Previous Version | Text Only | Print | Product List | Glossary On
Versions: 1 2 3 4 5 6 7 8 9 10 11 12 13 14 15 16 17 18 19 20 21 22 23 24 25
000
FTUS41 KBOX 251124
TAFPVD
TAF
KPVD 251124Z 2512/2612 25005KT 4SM BR SCT008
     FM251300 23005KT P6SM SCT130
     FM251500 17005KT P6SM FEW250
     FM252000 22009KT P6SM FEW250
     FM260400 26007KT P6SM FEW080
     FM260900 30006KT P6SM FEW250=

USA.gov is the U.S. government's official web portal to all federal, state and local government web resources and services.